createdAt,value
2023-03-01T00:01:34.274Z,1.42
2023-03-01T00:04:38.236Z,1.20
2023-03-01T00:07:40.814Z,1.13
2023-03-01T00:10:43.457Z,1.08
2023-03-01T00:13:47.391Z,1.16
2023-03-01T00:16:50.027Z,1.27
2023-03-01T00:19:53.951Z,1.28
2023-03-01T00:22:56.519Z,1.31
2023-03-01T00:25:59.109Z,1.24
2023-03-01T00:29:01.816Z,1.33
2023-03-01T00:32:04.474Z,1.26
2023-03-01T00:35:09.224Z,1.28
2023-03-01T00:38:12.319Z,1.27
2023-03-01T00:41:16.740Z,1.28
2023-03-01T00:44:19.292Z,1.23
2023-03-01T00:47:21.869Z,1.20
2023-03-01T00:50:26.350Z,1.13
2023-03-01T00:53:28.945Z,1.16
2023-03-01T00:56:32.791Z,1.12
2023-03-01T00:59:35.888Z,1.18
2023-03-01T01:02:38.484Z,1.09
2023-03-01T01:05:42.450Z,1.11
2023-03-01T01:08:45.097Z,1.06
2023-03-01T01:11:49.684Z,1.11
2023-03-01T01:14:52.300Z,1.12
2023-03-01T01:17:55.667Z,1.10
2023-03-01T01:20:59.646Z,0.97
2023-03-01T01:24:02.498Z,0.96
2023-03-01T01:27:05.362Z,0.98
2023-03-01T01:30:09.221Z,1.01
2023-03-01T01:33:11.832Z,1.05
2023-03-01T01:36:15.775Z,1.01
2023-03-01T01:39:19.153Z,1.15
2023-03-01T01:42:21.720Z,1.10
2023-03-01T01:45:32.538Z,1.03
2023-03-01T01:48:42.269Z,0.92
2023-03-01T01:51:49.173Z,0.86
2023-03-01T01:54:57.163Z,0.96
2023-03-01T01:58:04.256Z,0.96
2023-03-01T02:01:07.634Z,0.82
2023-03-01T02:04:10.306Z,0.87
2023-03-01T02:07:17.522Z,0.89
2023-03-01T02:10:20.502Z,0.85
2023-03-01T02:13:23.134Z,0.96
2023-03-01T02:16:27.170Z,0.91
2023-03-01T02:19:41.340Z,0.93
2023-03-01T02:22:48.295Z,0.87
2023-03-01T02:25:58.456Z,0.86
2023-03-01T02:29:02.614Z,0.80
2023-03-01T02:32:06.865Z,0.88
2023-03-01T02:35:12.496Z,0.80
2023-03-01T02:38:15.235Z,0.83
2023-03-01T02:41:21.073Z,0.86
2023-03-01T02:44:25.167Z,0.85
2023-03-01T02:47:27.880Z,0.94
2023-03-01T02:50:54.807Z,0.96
2023-03-01T02:54:08.074Z,1.09
2023-03-01T02:57:11.277Z,1.18
2023-03-01T03:00:21.014Z,1.19
2023-03-01T03:03:23.827Z,1.26
2023-03-01T03:06:26.430Z,1.29
2023-03-01T03:09:29.326Z,1.42
2023-03-01T03:12:31.932Z,1.53
2023-03-01T03:15:37.404Z,1.60
2023-03-01T03:18:39.968Z,1.60
2023-03-01T03:21:43.505Z,1.52
2023-03-01T03:24:46.074Z,1.48
2023-03-01T03:27:50.325Z,1.62
2023-03-01T03:30:54.276Z,1.63
2023-03-01T03:33:57.719Z,1.64
2023-03-01T03:37:00.608Z,1.74
2023-03-01T03:40:03.280Z,1.75
2023-03-01T03:43:08.831Z,1.80
2023-03-01T03:46:13.606Z,1.82
2023-03-01T03:49:16.228Z,1.78
2023-03-01T03:52:18.809Z,1.86
2023-03-01T03:55:21.501Z,1.80
2023-03-01T03:58:26.236Z,1.84
2023-03-01T04:01:30.254Z,1.91
2023-03-01T04:04:32.938Z,1.92
2023-03-01T04:07:35.750Z,1.96
2023-03-01T04:10:40.347Z,1.97
2023-03-01T04:13:42.914Z,2.07
2023-03-01T04:16:46.837Z,2.16
2023-03-01T04:19:50.196Z,2.02
2023-03-01T04:22:54.418Z,2.12
2023-03-01T04:25:58.805Z,2.13
2023-03-01T04:29:01.393Z,2.17
2023-03-01T04:32:05.973Z,2.15
2023-03-01T04:35:09.383Z,2.18
2023-03-01T04:38:11.999Z,2.22
2023-03-01T04:41:15.079Z,2.21
2023-03-01T04:44:17.696Z,2.27
2023-03-01T04:47:21.650Z,2.35
2023-03-01T04:50:24.435Z,2.35
2023-03-01T04:53:27.198Z,2.24
2023-03-01T04:56:30.178Z,2.26
2023-03-01T04:59:32.960Z,2.37
2023-03-01T05:02:36.949Z,2.47
2023-03-01T05:05:40.789Z,2.50
2023-03-01T05:08:44.071Z,2.46
2023-03-01T05:11:46.807Z,2.57
2023-03-01T05:14:49.408Z,2.41
2023-03-01T05:17:53.678Z,2.62
2023-03-01T05:20:57.202Z,2.61
2023-03-01T05:23:59.816Z,2.69
2023-03-01T05:27:02.812Z,2.73
2023-03-01T05:30:14.268Z,2.78
2023-03-01T05:33:24.823Z,2.71
2023-03-01T05:36:27.474Z,2.65
2023-03-01T05:39:32.457Z,2.74
2023-03-01T05:42:35.085Z,2.73
2023-03-01T05:45:38.465Z,2.82
2023-03-01T05:48:42.496Z,2.83
2023-03-01T05:51:49.202Z,2.84
2023-03-01T05:54:51.797Z,2.83
2023-03-01T05:57:54.382Z,2.85
2023-03-01T06:00:57.362Z,2.77
2023-03-01T06:04:01.384Z,2.90
2023-03-01T06:07:03.980Z,2.98
2023-03-01T06:10:08.754Z,2.95
2023-03-01T06:13:11.565Z,3.00
2023-03-01T06:16:14.645Z,2.93
2023-03-01T06:19:18.799Z,3.01
2023-03-01T06:22:21.545Z,3.12
2023-03-01T06:25:26.533Z,3.15
2023-03-01T06:28:29.123Z,3.10
2023-03-01T06:31:31.762Z,3.11
2023-03-01T06:34:36.045Z,3.17
2023-03-01T06:37:38.671Z,3.24
2023-03-01T06:40:41.536Z,3.21
2023-03-01T06:43:44.172Z,3.29
2023-03-01T06:46:46.846Z,3.35
2023-03-01T06:49:50.806Z,3.30
2023-03-01T06:52:57.547Z,3.26
2023-03-01T06:56:01.195Z,3.30
2023-03-01T06:59:04.649Z,3.31
2023-03-01T07:02:07.224Z,3.40
2023-03-01T07:05:11.286Z,3.39
2023-03-01T07:08:13.847Z,3.38
2023-03-01T07:11:16.900Z,3.41
2023-03-01T07:14:20.726Z,3.47
2023-03-01T07:17:23.300Z,3.51
2023-03-01T07:20:27.534Z,3.59
2023-03-01T07:23:30.934Z,3.67
2023-03-01T07:26:33.515Z,3.73
2023-03-01T07:29:37.372Z,3.77
2023-03-01T07:32:40.146Z,3.71
2023-03-01T07:35:44.207Z,3.82
2023-03-01T07:38:46.796Z,3.86
2023-03-01T07:41:49.376Z,3.87
2023-03-01T07:44:51.952Z,3.93
2023-03-01T07:47:55.262Z,3.94
2023-03-01T07:51:01.579Z,4.06
2023-03-01T07:54:04.240Z,4.14
2023-03-01T07:57:06.873Z,4.19
2023-03-01T08:00:12.760Z,3.42
2023-03-01T08:06:20.498Z,4.15
2023-03-01T08:09:23.874Z,4.28
2023-03-01T08:12:28.462Z,4.35
2023-03-01T08:15:31.211Z,4.38
2023-03-01T08:18:33.933Z,4.47
2023-03-01T08:21:38.215Z,4.59
2023-03-01T08:24:40.800Z,4.62
2023-03-01T08:27:43.376Z,4.73
2023-03-01T08:30:45.938Z,4.82
2023-03-01T08:33:51.693Z,4.86
2023-03-01T08:36:55.688Z,4.81
2023-03-01T08:39:58.423Z,4.97
2023-03-01T08:43:01.016Z,5.02
2023-03-01T08:46:03.735Z,5.12
2023-03-01T08:49:07.733Z,5.12
2023-03-01T08:52:11.675Z,5.28
2023-03-01T08:55:15.921Z,5.38
2023-03-01T08:58:18.534Z,5.27
2023-03-01T09:01:21.490Z,5.37
2023-03-01T09:04:24.278Z,5.53
2023-03-01T09:07:29.631Z,5.61
2023-03-01T09:10:32.242Z,5.64
2023-03-01T09:13:35.313Z,5.76
2023-03-01T09:16:37.912Z,5.88
2023-03-01T09:19:40.534Z,5.93
2023-03-01T09:22:44.818Z,6.14
2023-03-01T09:25:47.388Z,6.47
2023-03-01T09:28:51.328Z,6.50
2023-03-01T09:31:55.970Z,6.50
2023-03-01T09:35:05.811Z,6.71
2023-03-01T09:38:09.896Z,6.93
2023-03-01T09:41:28.469Z,7.10
2023-03-01T09:44:38.107Z,7.37
2023-03-01T09:47:41.553Z,7.36
2023-03-01T09:50:47.649Z,7.47
2023-03-01T09:53:51.674Z,7.60
2023-03-01T09:57:07.189Z,8.16
2023-03-01T10:00:29.598Z,8.19
2023-03-01T10:03:39.553Z,8.59
2023-03-01T10:06:52.868Z,8.55
2023-03-01T10:09:56.901Z,8.49
2023-03-01T10:12:59.604Z,8.87
2023-03-01T10:16:11.464Z,8.85
2023-03-01T10:19:19.123Z,9.07
2023-03-01T10:22:23.760Z,9.46
2023-03-01T10:25:43.660Z,9.85
2023-03-01T10:28:56.174Z,10.32
2023-03-01T10:31:58.910Z,10.11
2023-03-01T10:35:01.491Z,10.64
2023-03-01T10:38:09.254Z,10.85
2023-03-01T10:41:13.201Z,11.39
2023-03-01T10:44:37.990Z,11.57
2023-03-01T10:47:40.647Z,10.85
2023-03-01T10:50:45.202Z,11.83
2023-03-01T10:53:51.785Z,12.03
2023-03-01T10:56:57.785Z,11.93
2023-03-01T11:00:19.871Z,11.68
2023-03-01T11:03:25.627Z,11.92
2023-03-01T11:06:28.228Z,12.30
2023-03-01T11:09:39.344Z,12.96
2023-03-01T11:12:43.330Z,13.62
2023-03-01T11:16:00.859Z,14.06
2023-03-01T11:19:19.917Z,14.48
2023-03-01T11:22:24.454Z,15.11
2023-03-01T11:25:30.965Z,15.88
2023-03-01T11:28:39.698Z,15.80
2023-03-01T11:31:57.392Z,16.06
2023-03-01T11:35:06.287Z,16.45
2023-03-01T11:38:20.098Z,15.31
2023-03-01T11:41:26.493Z,15.81
2023-03-01T11:44:35.284Z,15.90
2023-03-01T11:47:52.138Z,16.32
2023-03-01T11:50:59.845Z,16.23
2023-03-01T11:54:14.120Z,16.30
2023-03-01T11:57:34.060Z,15.75
2023-03-01T12:01:02.509Z,14.48
2023-03-01T12:04:36.100Z,14.69
2023-03-01T12:07:48.575Z,15.39
2023-03-01T12:11:02.261Z,15.64
2023-03-01T12:14:35.463Z,16.58
2023-03-01T12:17:59.364Z,17.12
2023-03-01T12:21:13.041Z,17.15
2023-03-01T12:24:40.783Z,17.47
2023-03-01T12:28:19.044Z,17.05
2023-03-01T12:31:48.251Z,15.50
2023-03-01T12:35:17.186Z,14.55
2023-03-01T12:38:36.185Z,13.14
2023-03-01T12:41:49.933Z,13.03
2023-03-01T12:45:18.831Z,13.29
2023-03-01T12:48:31.592Z,13.80
2023-03-01T12:51:37.681Z,14.31
2023-03-01T12:54:40.260Z,15.07
2023-03-01T12:57:48.549Z,15.50
2023-03-01T13:01:02.537Z,16.38
2023-03-01T13:04:16.565Z,16.63
2023-03-01T13:07:30.495Z,16.84
2023-03-01T13:10:36.806Z,17.69
2023-03-01T13:13:39.460Z,17.62
2023-03-01T13:16:45.946Z,18.15
2023-03-01T13:19:58.576Z,18.80
2023-03-01T13:23:10.507Z,18.58
2023-03-01T13:26:15.995Z,19.30
2023-03-01T13:29:28.656Z,18.67
2023-03-01T13:32:43.585Z,19.00
2023-03-01T13:35:47.939Z,18.09
2023-03-01T13:38:58.960Z,18.29
2023-03-01T13:42:02.560Z,18.73
2023-03-01T13:45:16.149Z,19.07
2023-03-01T13:48:24.121Z,19.38
2023-03-01T13:51:29.972Z,19.17
2023-03-01T13:54:35.130Z,19.47
2023-03-01T13:57:41.031Z,19.56
2023-03-01T14:00:43.761Z,19.32
2023-03-01T14:03:46.408Z,19.10
2023-03-01T14:06:49.302Z,17.97
2023-03-01T14:09:56.998Z,17.38
2023-03-01T14:13:16.415Z,16.20
2023-03-01T14:16:32.521Z,16.40
2023-03-01T14:19:35.969Z,15.23
2023-03-01T14:22:42.239Z,14.50
2023-03-01T14:25:51.089Z,15.17
2023-03-01T14:28:53.775Z,15.35
2023-03-01T14:31:56.465Z,15.34
2023-03-01T14:35:01.387Z,15.14
2023-03-01T14:38:04.305Z,14.85
2023-03-01T14:41:10.319Z,15.14
2023-03-01T14:44:19.176Z,14.83
2023-03-01T14:47:28.963Z,14.17
2023-03-01T14:50:33.900Z,14.07
2023-03-01T14:53:49.223Z,14.27
2023-03-01T14:56:56.561Z,13.59
2023-03-01T15:00:01.411Z,13.92
2023-03-01T15:03:14.071Z,13.73
2023-03-01T15:06:20.038Z,13.75
2023-03-01T15:09:23.927Z,13.85
2023-03-01T15:12:43.068Z,13.89
2023-03-01T15:15:47.468Z,13.91
2023-03-01T15:18:52.734Z,13.65
2023-03-01T15:21:55.736Z,13.56
2023-03-01T15:24:58.785Z,13.17
2023-03-01T15:28:03.826Z,13.33
2023-03-01T15:31:23.024Z,13.66
2023-03-01T15:34:27.965Z,13.94
2023-03-01T15:37:48.609Z,13.48
2023-03-01T15:40:52.127Z,13.93
2023-03-01T15:43:56.713Z,13.82
2023-03-01T15:46:59.763Z,13.35
2023-03-01T15:50:03.357Z,12.84
2023-03-01T15:53:08.586Z,12.12
2023-03-01T15:56:11.183Z,11.86
2023-03-01T15:59:15.652Z,11.47
2023-03-01T16:02:18.274Z,10.85
2023-03-01T16:05:23.986Z,10.76
2023-03-01T16:08:26.627Z,10.45
2023-03-01T16:11:29.274Z,10.25
2023-03-01T16:14:33.236Z,10.18
2023-03-01T16:17:35.816Z,10.13
2023-03-01T16:20:38.936Z,10.02
2023-03-01T16:23:41.541Z,9.96
2023-03-01T16:26:44.132Z,9.49
2023-03-01T16:29:48.110Z,9.63
2023-03-01T16:32:51.931Z,9.55
2023-03-01T16:35:54.643Z,9.46
2023-03-01T16:39:00.332Z,9.38
2023-03-01T16:42:03.019Z,9.37
2023-03-01T16:45:18.436Z,9.26
2023-03-01T16:48:25.920Z,9.08
2023-03-01T16:51:30.974Z,8.82
2023-03-01T16:54:33.783Z,8.78
2023-03-01T16:57:36.974Z,8.71
2023-03-01T17:00:40.870Z,8.65
2023-03-01T17:03:44.064Z,8.49
2023-03-01T17:06:47.676Z,8.21
2023-03-01T17:09:50.556Z,8.34
2023-03-01T17:12:53.179Z,8.07
2023-03-01T17:15:57.114Z,8.17
2023-03-01T17:18:59.710Z,8.09
2023-03-01T17:22:02.294Z,7.97
2023-03-01T17:25:05.530Z,7.97
2023-03-01T17:28:08.180Z,7.70
2023-03-01T17:31:12.843Z,7.74
2023-03-01T17:34:16.370Z,7.68
2023-03-01T17:37:18.965Z,7.53
2023-03-01T17:40:21.532Z,7.37
2023-03-01T17:43:24.229Z,7.19
2023-03-01T17:46:28.220Z,6.99
2023-03-01T17:49:31.467Z,7.07
2023-03-01T17:52:34.052Z,6.79
2023-03-01T17:55:37.304Z,7.01
2023-03-01T17:58:40.241Z,6.86
2023-03-01T18:01:44.358Z,6.63
2023-03-01T18:04:47.563Z,6.41
2023-03-01T18:07:51.392Z,6.25
2023-03-01T18:10:59.764Z,6.22
2023-03-01T18:14:02.968Z,6.39
2023-03-01T18:17:11.787Z,6.17
2023-03-01T18:20:15.380Z,6.08
2023-03-01T18:23:18.083Z,6.17
2023-03-01T18:26:22.322Z,6.15
2023-03-01T18:29:24.925Z,6.10
2023-03-01T18:32:29.342Z,5.92
2023-03-01T18:35:32.081Z,5.66
2023-03-01T18:38:34.668Z,5.88
2023-03-01T18:41:38.278Z,5.72
2023-03-01T18:44:40.843Z,5.59
2023-03-01T18:47:45.047Z,5.57
2023-03-01T18:50:47.626Z,5.68
2023-03-01T18:53:50.383Z,5.65
2023-03-01T18:56:53.018Z,5.69
2023-03-01T18:59:55.577Z,4.99
2023-03-01T19:02:59.675Z,5.40
2023-03-01T19:06:02.390Z,5.42
2023-03-01T19:09:06.086Z,5.26
2023-03-01T19:12:08.952Z,5.29
2023-03-01T19:15:12.546Z,5.13
2023-03-01T19:18:16.461Z,4.98
2023-03-01T19:21:21.053Z,4.87
2023-03-01T19:24:23.647Z,4.83
2023-03-01T19:27:26.353Z,4.47
2023-03-01T19:30:29.024Z,4.79
2023-03-01T19:33:34.415Z,5.00
2023-03-01T19:36:36.988Z,5.08
2023-03-01T19:39:39.736Z,5.06
2023-03-01T19:42:42.303Z,4.97
2023-03-01T19:45:46.108Z,4.99
2023-03-01T19:48:50.328Z,5.00
2023-03-01T19:51:53.008Z,4.89
2023-03-01T19:55:03.872Z,5.14
2023-03-01T19:58:11.929Z,5.00
2023-03-01T20:01:16.959Z,5.14
2023-03-01T20:04:21.121Z,5.06
2023-03-01T20:07:23.716Z,4.79
2023-03-01T20:10:27.286Z,4.81
2023-03-01T20:13:29.952Z,4.78
2023-03-01T20:16:33.058Z,4.85
2023-03-01T20:19:37.708Z,4.86
2023-03-01T20:22:40.333Z,4.89
2023-03-01T20:25:43.091Z,4.83
2023-03-01T20:28:46.609Z,4.92
2023-03-01T20:31:49.335Z,4.60
2023-03-01T20:34:54.515Z,4.77
2023-03-01T20:37:57.451Z,4.38
2023-03-01T20:41:01.539Z,4.69
2023-03-01T20:44:06.472Z,4.87
2023-03-01T20:47:09.057Z,4.93
2023-03-01T20:50:13.460Z,4.89
2023-03-01T20:53:16.159Z,5.00
2023-03-01T20:56:20.303Z,5.01
2023-03-01T20:59:23.788Z,4.93
2023-03-01T21:02:26.507Z,4.97
2023-03-01T21:05:31.658Z,4.87
2023-03-01T21:08:34.743Z,4.70
2023-03-01T21:11:37.900Z,4.61
2023-03-01T21:14:43.245Z,4.57
2023-03-01T21:17:46.302Z,4.41
2023-03-01T21:20:50.611Z,4.24
2023-03-01T21:23:55.485Z,4.14
2023-03-01T21:26:58.134Z,4.49
2023-03-01T21:30:00.719Z,4.58
